sensor_id;sensor_type;location;lat;lon;timestamp;P1;durP1;ratioP1;P2;durP2;ratioP2
32228;SDS011;18717;48.034;11.186;2023-07-31T00:00:55;12.82;;;11.82;;
32228;SDS011;18717;48.034;11.186;2023-07-31T00:03:23;13.20;;;11.93;;
32228;SDS011;18717;48.034;11.186;2023-07-31T00:05:51;12.63;;;11.50;;
32228;SDS011;18717;48.034;11.186;2023-07-31T00:08:18;12.15;;;11.35;;
32228;SDS011;18717;48.034;11.186;2023-07-31T00:10:46;12.05;;;11.25;;
32228;SDS011;18717;48.034;11.186;2023-07-31T00:13:15;12.30;;;11.30;;
32228;SDS011;18717;48.034;11.186;2023-07-31T00:15:43;12.02;;;11.20;;
32228;SDS011;18717;48.034;11.186;2023-07-31T00:18:11;12.93;;;11.80;;
32228;SDS011;18717;48.034;11.186;2023-07-31T00:20:38;12.57;;;11.68;;
32228;SDS011;18717;48.034;11.186;2023-07-31T00:23:06;12.05;;;11.35;;
32228;SDS011;18717;48.034;11.186;2023-07-31T00:25:34;12.20;;;11.45;;
32228;SDS011;18717;48.034;11.186;2023-07-31T00:28:01;12.77;;;11.85;;
32228;SDS011;18717;48.034;11.186;2023-07-31T00:30:31;12.15;;;11.45;;
32228;SDS011;18717;48.034;11.186;2023-07-31T00:32:58;12.63;;;11.82;;
32228;SDS011;18717;48.034;11.186;2023-07-31T00:35:26;12.10;;;11.50;;
32228;SDS011;18717;48.034;11.186;2023-07-31T00:37:54;12.68;;;11.90;;
32228;SDS011;18717;48.034;11.186;2023-07-31T00:40:22;12.40;;;11.77;;
32228;SDS011;18717;48.034;11.186;2023-07-31T00:42:49;12.65;;;11.80;;
32228;SDS011;18717;48.034;11.186;2023-07-31T00:45:17;12.95;;;12.18;;
32228;SDS011;18717;48.034;11.186;2023-07-31T00:47:46;13.25;;;11.93;;
32228;SDS011;18717;48.034;11.186;2023-07-31T00:50:14;12.40;;;11.70;;
32228;SDS011;18717;48.034;11.186;2023-07-31T00:52:42;12.50;;;11.80;;
32228;SDS011;18717;48.034;11.186;2023-07-31T00:55:09;13.30;;;12.20;;
32228;SDS011;18717;48.034;11.186;2023-07-31T00:57:37;12.70;;;11.88;;
32228;SDS011;18717;48.034;11.186;2023-07-31T01:00:06;13.00;;;12.00;;
32228;SDS011;18717;48.034;11.186;2023-07-31T01:02:35;11.80;;;11.10;;
32228;SDS011;18717;48.034;11.186;2023-07-31T01:05:04;12.98;;;11.98;;
32228;SDS011;18717;48.034;11.186;2023-07-31T01:07:35;12.85;;;12.15;;
32228;SDS011;18717;48.034;11.186;2023-07-31T01:10:08;15.65;;;12.60;;
32228;SDS011;18717;48.034;11.186;2023-07-31T01:12:39;11.80;;;11.07;;
32228;SDS011;18717;48.034;11.186;2023-07-31T01:15:08;12.70;;;11.80;;
32228;SDS011;18717;48.034;11.186;2023-07-31T01:17:37;13.30;;;12.40;;
32228;SDS011;18717;48.034;11.186;2023-07-31T01:20:08;13.15;;;12.45;;
32228;SDS011;18717;48.034;11.186;2023-07-31T01:22:44;12.30;;;11.50;;
32228;SDS011;18717;48.034;11.186;2023-07-31T01:25:22;12.93;;;11.98;;
32228;SDS011;18717;48.034;11.186;2023-07-31T01:28:03;12.52;;;11.82;;
32228;SDS011;18717;48.034;11.186;2023-07-31T01:30:33;12.02;;;11.27;;
32228;SDS011;18717;48.034;11.186;2023-07-31T01:33:03;12.93;;;12.13;;
32228;SDS011;18717;48.034;11.186;2023-07-31T01:35:34;12.75;;;11.80;;
32228;SDS011;18717;48.034;11.186;2023-07-31T01:38:02;12.90;;;11.90;;
32228;SDS011;18717;48.034;11.186;2023-07-31T01:40:30;12.20;;;11.43;;
32228;SDS011;18717;48.034;11.186;2023-07-31T01:42:58;13.10;;;12.07;;
32228;SDS011;18717;48.034;11.186;2023-07-31T01:45:27;13.00;;;12.07;;
32228;SDS011;18717;48.034;11.186;2023-07-31T01:47:55;13.35;;;12.45;;
32228;SDS011;18717;48.034;11.186;2023-07-31T01:50:22;12.60;;;11.75;;
32228;SDS011;18717;48.034;11.186;2023-07-31T01:52:50;12.98;;;12.23;;
32228;SDS011;18717;48.034;11.186;2023-07-31T01:55:18;13.20;;;12.38;;
32228;SDS011;18717;48.034;11.186;2023-07-31T01:57:46;13.10;;;12.02;;
32228;SDS011;18717;48.034;11.186;2023-07-31T02:00:14;12.48;;;11.52;;
32228;SDS011;18717;48.034;11.186;2023-07-31T02:02:44;12.32;;;11.63;;
32228;SDS011;18717;48.034;11.186;2023-07-31T02:05:11;12.40;;;11.80;;
32228;SDS011;18717;48.034;11.186;2023-07-31T02:07:39;12.40;;;11.70;;
32228;SDS011;18717;48.034;11.186;2023-07-31T02:10:07;13.05;;;12.25;;
32228;SDS011;18717;48.034;11.186;2023-07-31T02:12:35;13.23;;;12.18;;
32228;SDS011;18717;48.034;11.186;2023-07-31T02:15:03;13.18;;;12.18;;
32228;SDS011;18717;48.034;11.186;2023-07-31T02:17:31;12.40;;;11.50;;
32228;SDS011;18717;48.034;11.186;2023-07-31T02:20:00;12.52;;;11.63;;
32228;SDS011;18717;48.034;11.186;2023-07-31T02:22:28;12.50;;;11.68;;
32228;SDS011;18717;48.034;11.186;2023-07-31T02:24:56;12.95;;;12.20;;
32228;SDS011;18717;48.034;11.186;2023-07-31T02:27:24;13.13;;;11.85;;
32228;SDS011;18717;48.034;11.186;2023-07-31T02:29:53;13.30;;;12.18;;
32228;SDS011;18717;48.034;11.186;2023-07-31T02:32:21;13.18;;;12.27;;
32228;SDS011;18717;48.034;11.186;2023-07-31T02:34:49;13.27;;;12.13;;
32228;SDS011;18717;48.034;11.186;2023-07-31T02:37:18;13.10;;;12.00;;
32228;SDS011;18717;48.034;11.186;2023-07-31T02:39:46;13.85;;;12.82;;
32228;SDS011;18717;48.034;11.186;2023-07-31T02:42:14;12.75;;;11.70;;
32228;SDS011;18717;48.034;11.186;2023-07-31T02:44:42;14.43;;;12.98;;
32228;SDS011;18717;48.034;11.186;2023-07-31T02:47:09;13.55;;;12.57;;
32228;SDS011;18717;48.034;11.186;2023-07-31T02:49:37;14.05;;;12.95;;
32228;SDS011;18717;48.034;11.186;2023-07-31T02:52:05;12.55;;;11.75;;
32228;SDS011;18717;48.034;11.186;2023-07-31T02:54:34;13.07;;;11.98;;
32228;SDS011;18717;48.034;11.186;2023-07-31T02:57:02;13.05;;;12.20;;
32228;SDS011;18717;48.034;11.186;2023-07-31T02:59:30;12.05;;;11.35;;
32228;SDS011;18717;48.034;11.186;2023-07-31T03:01:58;12.68;;;11.95;;
32228;SDS011;18717;48.034;11.186;2023-07-31T03:04:26;12.57;;;11.65;;
32228;SDS011;18717;48.034;11.186;2023-07-31T03:06:53;13.50;;;12.60;;
32228;SDS011;18717;48.034;11.186;2023-07-31T03:09:21;13.35;;;12.30;;
32228;SDS011;18717;48.034;11.186;2023-07-31T03:11:50;12.85;;;12.05;;
32228;SDS011;18717;48.034;11.186;2023-07-31T03:14:18;12.80;;;12.10;;
32228;SDS011;18717;48.034;11.186;2023-07-31T03:16:45;12.93;;;11.80;;
32228;SDS011;18717;48.034;11.186;2023-07-31T03:19:13;12.70;;;12.07;;
32228;SDS011;18717;48.034;11.186;2023-07-31T03:21:41;13.57;;;12.57;;
32228;SDS011;18717;48.034;11.186;2023-07-31T03:24:08;12.63;;;11.93;;
32228;SDS011;18717;48.034;11.186;2023-07-31T03:26:38;13.55;;;12.48;;
32228;SDS011;18717;48.034;11.186;2023-07-31T03:29:09;13.93;;;12.73;;
32228;SDS011;18717;48.034;11.186;2023-07-31T03:31:36;13.57;;;12.30;;
32228;SDS011;18717;48.034;11.186;2023-07-31T03:34:04;13.75;;;12.85;;
32228;SDS011;18717;48.034;11.186;2023-07-31T03:36:32;13.80;;;12.32;;
32228;SDS011;18717;48.034;11.186;2023-07-31T03:38:59;13.45;;;12.55;;
32228;SDS011;18717;48.034;11.186;2023-07-31T03:41:27;13.27;;;12.20;;
32228;SDS011;18717;48.034;11.186;2023-07-31T03:43:55;13.23;;;12.05;;
32228;SDS011;18717;48.034;11.186;2023-07-31T03:46:24;12.93;;;11.93;;
32228;SDS011;18717;48.034;11.186;2023-07-31T03:48:52;15.25;;;12.38;;
32228;SDS011;18717;48.034;11.186;2023-07-31T03:51:20;13.50;;;12.40;;
32228;SDS011;18717;48.034;11.186;2023-07-31T03:53:47;12.95;;;11.55;;
32228;SDS011;18717;48.034;11.186;2023-07-31T03:56:15;12.77;;;11.63;;
32228;SDS011;18717;48.034;11.186;2023-07-31T03:58:43;14.23;;;11.77;;
32228;SDS011;18717;48.034;11.186;2023-07-31T04:01:10;15.77;;;12.35;;
32228;SDS011;18717;48.034;11.186;2023-07-31T04:03:40;12.65;;;11.70;;
32228;SDS011;18717;48.034;11.186;2023-07-31T04:06:07;13.00;;;11.77;;
32228;SDS011;18717;48.034;11.186;2023-07-31T04:08:35;12.73;;;11.90;;
32228;SDS011;18717;48.034;11.186;2023-07-31T04:11:02;12.77;;;11.88;;
32228;SDS011;18717;48.034;11.186;2023-07-31T04:13:30;12.55;;;11.57;;
32228;SDS011;18717;48.034;11.186;2023-07-31T04:15:58;12.68;;;11.77;;
32228;SDS011;18717;48.034;11.186;2023-07-31T04:18:25;12.73;;;11.82;;
32228;SDS011;18717;48.034;11.186;2023-07-31T04:20:54;12.25;;;11.55;;
32228;SDS011;18717;48.034;11.186;2023-07-31T04:23:22;13.45;;;12.27;;
32228;SDS011;18717;48.034;11.186;2023-07-31T04:25:50;13.40;;;12.30;;
32228;SDS011;18717;48.034;11.186;2023-07-31T04:28:18;12.43;;;11.63;;
32228;SDS011;18717;48.034;11.186;2023-07-31T04:30:45;13.50;;;12.48;;
32228;SDS011;18717;48.034;11.186;2023-07-31T04:33:16;12.43;;;11.65;;
32228;SDS011;18717;48.034;11.186;2023-07-31T04:35:48;12.30;;;11.38;;
32228;SDS011;18717;48.034;11.186;2023-07-31T04:38:19;12.98;;;11.70;;
32228;SDS011;18717;48.034;11.186;2023-07-31T04:40:48;12.00;;;11.18;;
32228;SDS011;18717;48.034;11.186;2023-07-31T04:43:15;12.88;;;11.95;;
32228;SDS011;18717;48.034;11.186;2023-07-31T04:45:45;12.82;;;12.02;;
32228;SDS011;18717;48.034;11.186;2023-07-31T04:48:13;12.57;;;11.50;;
32228;SDS011;18717;48.034;11.186;2023-07-31T04:50:41;13.00;;;11.82;;
32228;SDS011;18717;48.034;11.186;2023-07-31T04:53:09;12.32;;;11.43;;
32228;SDS011;18717;48.034;11.186;2023-07-31T04:55:38;13.00;;;12.20;;
32228;SDS011;18717;48.034;11.186;2023-07-31T04:58:06;12.02;;;11.10;;
32228;SDS011;18717;48.034;11.186;2023-07-31T05:00:33;12.25;;;11.45;;
32228;SDS011;18717;48.034;11.186;2023-07-31T05:03:01;11.98;;;11.30;;
32228;SDS011;18717;48.034;11.186;2023-07-31T05:05:29;12.27;;;11.50;;
32228;SDS011;18717;48.034;11.186;2023-07-31T05:07:56;12.73;;;11.68;;
32228;SDS011;18717;48.034;11.186;2023-07-31T05:10:24;12.23;;;11.23;;
32228;SDS011;18717;48.034;11.186;2023-07-31T05:12:53;12.55;;;11.75;;
32228;SDS011;18717;48.034;11.186;2023-07-31T05:15:21;12.45;;;11.52;;
32228;SDS011;18717;48.034;11.186;2023-07-31T05:17:48;12.85;;;11.80;;
32228;SDS011;18717;48.034;11.186;2023-07-31T05:20:16;12.45;;;11.75;;
32228;SDS011;18717;48.034;11.186;2023-07-31T05:22:44;13.07;;;12.20;;
32228;SDS011;18717;48.034;11.186;2023-07-31T05:25:12;12.40;;;11.70;;
32228;SDS011;18717;48.034;11.186;2023-07-31T05:27:39;12.77;;;11.98;;
32228;SDS011;18717;48.034;11.186;2023-07-31T05:30:09;12.23;;;11.52;;
32228;SDS011;18717;48.034;11.186;2023-07-31T05:32:36;12.52;;;11.70;;
32228;SDS011;18717;48.034;11.186;2023-07-31T05:35:05;12.52;;;11.57;;
32228;SDS011;18717;48.034;11.186;2023-07-31T05:37:33;12.40;;;11.65;;
32228;SDS011;18717;48.034;11.186;2023-07-31T05:40:00;13.95;;;12.90;;
32228;SDS011;18717;48.034;11.186;2023-07-31T05:42:28;12.50;;;11.38;;
32228;SDS011;18717;48.034;11.186;2023-07-31T05:44:56;11.52;;;10.82;;
32228;SDS011;18717;48.034;11.186;2023-07-31T05:47:25;11.98;;;11.35;;
32228;SDS011;18717;48.034;11.186;2023-07-31T05:49:52;12.90;;;11.90;;
32228;SDS011;18717;48.034;11.186;2023-07-31T05:52:20;12.35;;;11.45;;
32228;SDS011;18717;48.034;11.186;2023-07-31T05:54:48;12.68;;;11.88;;
32228;SDS011;18717;48.034;11.186;2023-07-31T05:57:16;13.35;;;12.35;;
32228;SDS011;18717;48.034;11.186;2023-07-31T05:59:44;12.75;;;11.93;;
32228;SDS011;18717;48.034;11.186;2023-07-31T06:02:12;11.98;;;11.23;;
32228;SDS011;18717;48.034;11.186;2023-07-31T06:04:41;13.35;;;12.40;;
32228;SDS011;18717;48.034;11.186;2023-07-31T06:07:09;13.40;;;12.45;;
32228;SDS011;18717;48.034;11.186;2023-07-31T06:09:37;13.13;;;12.27;;
32228;SDS011;18717;48.034;11.186;2023-07-31T06:12:05;12.50;;;11.45;;
32228;SDS011;18717;48.034;11.186;2023-07-31T06:14:33;13.15;;;12.10;;
32228;SDS011;18717;48.034;11.186;2023-07-31T06:17:00;13.35;;;12.45;;
32228;SDS011;18717;48.034;11.186;2023-07-31T06:19:28;12.50;;;11.73;;
32228;SDS011;18717;48.034;11.186;2023-07-31T06:21:57;12.32;;;11.55;;
32228;SDS011;18717;48.034;11.186;2023-07-31T06:24:25;13.02;;;11.93;;
32228;SDS011;18717;48.034;11.186;2023-07-31T06:26:53;12.77;;;11.55;;
32228;SDS011;18717;48.034;11.186;2023-07-31T06:29:20;12.32;;;11.52;;
32228;SDS011;18717;48.034;11.186;2023-07-31T06:31:48;12.45;;;11.65;;
32228;SDS011;18717;48.034;11.186;2023-07-31T06:34:16;12.52;;;11.63;;
32228;SDS011;18717;48.034;11.186;2023-07-31T06:36:44;12.10;;;11.40;;
32228;SDS011;18717;48.034;11.186;2023-07-31T06:39:13;12.23;;;11.52;;
32228;SDS011;18717;48.034;11.186;2023-07-31T06:41:41;12.38;;;11.68;;
32228;SDS011;18717;48.034;11.186;2023-07-31T06:44:09;12.25;;;11.50;;
32228;SDS011;18717;48.034;11.186;2023-07-31T06:46:37;12.00;;;11.20;;
32228;SDS011;18717;48.034;11.186;2023-07-31T06:49:05;12.75;;;11.65;;
32228;SDS011;18717;48.034;11.186;2023-07-31T06:51:33;12.50;;;11.70;;
32228;SDS011;18717;48.034;11.186;2023-07-31T06:54:02;13.88;;;12.82;;
32228;SDS011;18717;48.034;11.186;2023-07-31T06:56:31;12.90;;;12.00;;
32228;SDS011;18717;48.034;11.186;2023-07-31T06:58:59;12.82;;;12.13;;
32228;SDS011;18717;48.034;11.186;2023-07-31T07:01:26;12.93;;;11.80;;
32228;SDS011;18717;48.034;11.186;2023-07-31T07:03:55;12.65;;;11.75;;
32228;SDS011;18717;48.034;11.186;2023-07-31T07:06:22;12.40;;;11.70;;
32228;SDS011;18717;48.034;11.186;2023-07-31T07:08:50;12.40;;;11.45;;
32228;SDS011;18717;48.034;11.186;2023-07-31T07:11:18;13.02;;;12.13;;
32228;SDS011;18717;48.034;11.186;2023-07-31T07:13:47;13.45;;;12.43;;
32228;SDS011;18717;48.034;11.186;2023-07-31T07:16:15;12.98;;;12.05;;
32228;SDS011;18717;48.034;11.186;2023-07-31T07:18:43;13.35;;;12.38;;
32228;SDS011;18717;48.034;11.186;2023-07-31T07:21:28;13.15;;;12.32;;
32228;SDS011;18717;48.034;11.186;2023-07-31T07:23:55;13.23;;;12.40;;
32228;SDS011;18717;48.034;11.186;2023-07-31T07:26:23;12.70;;;11.80;;
32228;SDS011;18717;48.034;11.186;2023-07-31T07:28:52;13.48;;;12.57;;
32228;SDS011;18717;48.034;11.186;2023-07-31T07:31:20;13.25;;;12.07;;
32228;SDS011;18717;48.034;11.186;2023-07-31T07:33:48;12.70;;;11.90;;
32228;SDS011;18717;48.034;11.186;2023-07-31T07:36:15;13.20;;;12.27;;
32228;SDS011;18717;48.034;11.186;2023-07-31T07:38:43;12.90;;;12.02;;
32228;SDS011;18717;48.034;11.186;2023-07-31T07:41:11;12.90;;;12.20;;
32228;SDS011;18717;48.034;11.186;2023-07-31T07:43:38;13.98;;;12.98;;
32228;SDS011;18717;48.034;11.186;2023-07-31T07:46:07;12.93;;;12.10;;
32228;SDS011;18717;48.034;11.186;2023-07-31T07:48:35;13.43;;;12.63;;
32228;SDS011;18717;48.034;11.186;2023-07-31T07:51:03;13.68;;;12.90;;
32228;SDS011;18717;48.034;11.186;2023-07-31T07:53:30;14.55;;;13.50;;
32228;SDS011;18717;48.034;11.186;2023-07-31T07:55:58;12.85;;;12.15;;
32228;SDS011;18717;48.034;11.186;2023-07-31T07:58:26;14.10;;;12.73;;
32228;SDS011;18717;48.034;11.186;2023-07-31T08:00:53;12.63;;;11.80;;
32228;SDS011;18717;48.034;11.186;2023-07-31T08:03:22;12.98;;;12.00;;
32228;SDS011;18717;48.034;11.186;2023-07-31T08:05:50;12.68;;;11.93;;
32228;SDS011;18717;48.034;11.186;2023-07-31T08:08:18;13.18;;;12.20;;
32228;SDS011;18717;48.034;11.186;2023-07-31T08:10:46;14.90;;;13.65;;
32228;SDS011;18717;48.034;11.186;2023-07-31T08:13:13;13.02;;;12.23;;
32228;SDS011;18717;48.034;11.186;2023-07-31T08:15:41;12.45;;;11.68;;
32228;SDS011;18717;48.034;11.186;2023-07-31T08:18:09;13.00;;;12.20;;
32228;SDS011;18717;48.034;11.186;2023-07-31T08:20:39;12.90;;;12.00;;
32228;SDS011;18717;48.034;11.186;2023-07-31T08:23:07;12.88;;;12.18;;
32228;SDS011;18717;48.034;11.186;2023-07-31T08:25:34;13.23;;;12.30;;
32228;SDS011;18717;48.034;11.186;2023-07-31T08:28:02;13.35;;;12.55;;
32228;SDS011;18717;48.034;11.186;2023-07-31T08:30:31;12.57;;;11.88;;
32228;SDS011;18717;48.034;11.186;2023-07-31T08:32:59;13.45;;;12.63;;
32228;SDS011;18717;48.034;11.186;2023-07-31T08:35:27;12.65;;;11.98;;
32228;SDS011;18717;48.034;11.186;2023-07-31T08:37:57;13.57;;;12.57;;
32228;SDS011;18717;48.034;11.186;2023-07-31T08:40:24;13.20;;;12.30;;
32228;SDS011;18717;48.034;11.186;2023-07-31T08:42:53;12.20;;;11.40;;
32228;SDS011;18717;48.034;11.186;2023-07-31T08:45:22;13.00;;;12.20;;
32228;SDS011;18717;48.034;11.186;2023-07-31T08:47:51;13.05;;;12.25;;
32228;SDS011;18717;48.034;11.186;2023-07-31T08:50:20;12.32;;;11.52;;
32228;SDS011;18717;48.034;11.186;2023-07-31T08:52:48;12.63;;;11.77;;
32228;SDS011;18717;48.034;11.186;2023-07-31T08:55:18;13.15;;;12.27;;
32228;SDS011;18717;48.034;11.186;2023-07-31T08:57:50;12.52;;;11.70;;
32228;SDS011;18717;48.034;11.186;2023-07-31T09:00:19;13.32;;;12.30;;
32228;SDS011;18717;48.034;11.186;2023-07-31T09:02:51;14.00;;;13.05;;
32228;SDS011;18717;48.034;11.186;2023-07-31T09:05:22;14.00;;;13.10;;
32228;SDS011;18717;48.034;11.186;2023-07-31T09:07:50;13.15;;;12.35;;
32228;SDS011;18717;48.034;11.186;2023-07-31T09:10:20;13.35;;;12.23;;
32228;SDS011;18717;48.034;11.186;2023-07-31T09:12:47;13.85;;;12.25;;
32228;SDS011;18717;48.034;11.186;2023-07-31T09:15:16;14.02;;;13.05;;
32228;SDS011;18717;48.034;11.186;2023-07-31T09:17:58;13.02;;;12.18;;
32228;SDS011;18717;48.034;11.186;2023-07-31T09:20:27;13.70;;;12.85;;
32228;SDS011;18717;48.034;11.186;2023-07-31T09:22:55;12.93;;;12.00;;
32228;SDS011;18717;48.034;11.186;2023-07-31T09:25:24;13.00;;;12.30;;
32228;SDS011;18717;48.034;11.186;2023-07-31T09:27:54;13.55;;;12.73;;
32228;SDS011;18717;48.034;11.186;2023-07-31T09:30:24;13.15;;;12.30;;
32228;SDS011;18717;48.034;11.186;2023-07-31T09:33:00;13.57;;;12.68;;
32228;SDS011;18717;48.034;11.186;2023-07-31T09:35:29;14.00;;;13.00;;
32228;SDS011;18717;48.034;11.186;2023-07-31T09:37:58;13.43;;;12.50;;
32228;SDS011;18717;48.034;11.186;2023-07-31T09:40:29;13.88;;;12.93;;
32228;SDS011;18717;48.034;11.186;2023-07-31T09:42:57;14.48;;;13.40;;
32228;SDS011;18717;48.034;11.186;2023-07-31T09:45:26;15.68;;;14.18;;
32228;SDS011;18717;48.034;11.186;2023-07-31T09:48:06;14.15;;;13.20;;
32228;SDS011;18717;48.034;11.186;2023-07-31T09:50:36;14.43;;;13.40;;
32228;SDS011;18717;48.034;11.186;2023-07-31T09:53:05;13.85;;;12.85;;
32228;SDS011;18717;48.034;11.186;2023-07-31T09:55:35;14.45;;;13.30;;
32228;SDS011;18717;48.034;11.186;2023-07-31T09:58:04;14.40;;;13.55;;
32228;SDS011;18717;48.034;11.186;2023-07-31T10:00:32;14.20;;;13.40;;
32228;SDS011;18717;48.034;11.186;2023-07-31T10:03:01;13.88;;;12.63;;
32228;SDS011;18717;48.034;11.186;2023-07-31T10:05:33;13.30;;;12.60;;
32228;SDS011;18717;48.034;11.186;2023-07-31T10:08:02;14.25;;;13.35;;
32228;SDS011;18717;48.034;11.186;2023-07-31T10:10:30;14.57;;;13.45;;
32228;SDS011;18717;48.034;11.186;2023-07-31T10:13:00;12.95;;;12.25;;
32228;SDS011;18717;48.034;11.186;2023-07-31T10:15:28;13.85;;;13.05;;
32228;SDS011;18717;48.034;11.186;2023-07-31T10:17:56;13.85;;;12.95;;
32228;SDS011;18717;48.034;11.186;2023-07-31T10:20:24;13.55;;;12.65;;
32228;SDS011;18717;48.034;11.186;2023-07-31T10:22:53;12.90;;;12.30;;
32228;SDS011;18717;48.034;11.186;2023-07-31T10:25:22;13.60;;;12.30;;
32228;SDS011;18717;48.034;11.186;2023-07-31T10:27:50;14.45;;;13.18;;
32228;SDS011;18717;48.034;11.186;2023-07-31T10:30:20;14.45;;;13.43;;
32228;SDS011;18717;48.034;11.186;2023-07-31T10:32:50;13.50;;;12.60;;
32228;SDS011;18717;48.034;11.186;2023-07-31T10:35:18;13.52;;;12.82;;
32228;SDS011;18717;48.034;11.186;2023-07-31T10:37:48;14.98;;;14.00;;
32228;SDS011;18717;48.034;11.186;2023-07-31T10:40:16;12.93;;;12.13;;
32228;SDS011;18717;48.034;11.186;2023-07-31T10:42:46;13.38;;;12.68;;
32228;SDS011;18717;48.034;11.186;2023-07-31T10:45:24;13.50;;;12.70;;
32228;SDS011;18717;48.034;11.186;2023-07-31T10:47:58;13.55;;;12.75;;
32228;SDS011;18717;48.034;11.186;2023-07-31T10:50:27;13.80;;;12.90;;
32228;SDS011;18717;48.034;11.186;2023-07-31T10:52:55;13.93;;;12.98;;
32228;SDS011;18717;48.034;11.186;2023-07-31T10:55:25;13.65;;;12.85;;
32228;SDS011;18717;48.034;11.186;2023-07-31T10:57:54;14.10;;;13.30;;
32228;SDS011;18717;48.034;11.186;2023-07-31T11:00:24;14.80;;;13.80;;
32228;SDS011;18717;48.034;11.186;2023-07-31T11:02:58;13.90;;;13.00;;
32228;SDS011;18717;48.034;11.186;2023-07-31T11:05:40;13.75;;;13.05;;
32228;SDS011;18717;48.034;11.186;2023-07-31T11:08:12;14.63;;;13.77;;
32228;SDS011;18717;48.034;11.186;2023-07-31T11:13:08;13.90;;;12.82;;
32228;SDS011;18717;48.034;11.186;2023-07-31T11:15:38;14.25;;;13.23;;
32228;SDS011;18717;48.034;11.186;2023-07-31T11:18:06;14.32;;;13.40;;
32228;SDS011;18717;48.034;11.186;2023-07-31T11:20:34;14.38;;;13.27;;
32228;SDS011;18717;48.034;11.186;2023-07-31T11:23:03;14.50;;;13.57;;
32228;SDS011;18717;48.034;11.186;2023-07-31T11:25:34;13.73;;;12.82;;
32228;SDS011;18717;48.034;11.186;2023-07-31T11:28:02;14.60;;;13.50;;
32228;SDS011;18717;48.034;11.186;2023-07-31T11:30:33;14.00;;;13.00;;
32228;SDS011;18717;48.034;11.186;2023-07-31T11:33:03;13.40;;;12.70;;
32228;SDS011;18717;48.034;11.186;2023-07-31T11:35:32;13.98;;;12.98;;
32228;SDS011;18717;48.034;11.186;2023-07-31T11:38:00;14.95;;;13.95;;
32228;SDS011;18717;48.034;11.186;2023-07-31T11:40:28;14.07;;;12.65;;
32228;SDS011;18717;48.034;11.186;2023-07-31T11:42:58;13.65;;;12.85;;
32228;SDS011;18717;48.034;11.186;2023-07-31T11:45:26;13.85;;;12.68;;
32228;SDS011;18717;48.034;11.186;2023-07-31T11:47:55;14.20;;;13.23;;
32228;SDS011;18717;48.034;11.186;2023-07-31T11:50:24;14.00;;;13.25;;
32228;SDS011;18717;48.034;11.186;2023-07-31T11:52:53;14.02;;;13.13;;
32228;SDS011;18717;48.034;11.186;2023-07-31T11:55:23;15.27;;;14.30;;
32228;SDS011;18717;48.034;11.186;2023-07-31T11:57:51;14.02;;;13.20;;
32228;SDS011;18717;48.034;11.186;2023-07-31T12:00:20;13.32;;;12.60;;
32228;SDS011;18717;48.034;11.186;2023-07-31T12:02:49;13.98;;;13.15;;
32228;SDS011;18717;48.034;11.186;2023-07-31T12:05:17;14.27;;;13.15;;
32228;SDS011;18717;48.034;11.186;2023-07-31T12:07:47;14.93;;;13.90;;
32228;SDS011;18717;48.034;11.186;2023-07-31T12:10:25;13.55;;;12.85;;
32228;SDS011;18717;48.034;11.186;2023-07-31T12:13:01;13.80;;;13.02;;
32228;SDS011;18717;48.034;11.186;2023-07-31T12:15:34;14.05;;;13.25;;
32228;SDS011;18717;48.034;11.186;2023-07-31T12:18:06;14.45;;;13.40;;
32228;SDS011;18717;48.034;11.186;2023-07-31T12:20:39;15.75;;;14.38;;
32228;SDS011;18717;48.034;11.186;2023-07-31T12:23:13;14.82;;;13.73;;
32228;SDS011;18717;48.034;11.186;2023-07-31T12:25:42;15.00;;;13.88;;
32228;SDS011;18717;48.034;11.186;2023-07-31T12:28:09;15.35;;;14.15;;
32228;SDS011;18717;48.034;11.186;2023-07-31T12:30:39;14.20;;;13.30;;
32228;SDS011;18717;48.034;11.186;2023-07-31T12:33:12;15.48;;;14.57;;
32228;SDS011;18717;48.034;11.186;2023-07-31T12:35:42;14.10;;;13.10;;
32228;SDS011;18717;48.034;11.186;2023-07-31T12:38:11;14.70;;;13.80;;
32228;SDS011;18717;48.034;11.186;2023-07-31T12:40:41;14.50;;;13.65;;
32228;SDS011;18717;48.034;11.186;2023-07-31T12:43:09;14.38;;;13.48;;
32228;SDS011;18717;48.034;11.186;2023-07-31T12:45:36;13.52;;;12.75;;
32228;SDS011;18717;48.034;11.186;2023-07-31T12:48:04;13.82;;;13.02;;
32228;SDS011;18717;48.034;11.186;2023-07-31T12:50:33;13.55;;;12.82;;
32228;SDS011;18717;48.034;11.186;2023-07-31T12:53:02;13.52;;;12.75;;
32228;SDS011;18717;48.034;11.186;2023-07-31T12:55:30;14.35;;;13.45;;
32228;SDS011;18717;48.034;11.186;2023-07-31T12:58:00;14.32;;;13.52;;
32228;SDS011;18717;48.034;11.186;2023-07-31T13:00:28;14.07;;;13.35;;
32228;SDS011;18717;48.034;11.186;2023-07-31T13:02:56;13.95;;;13.25;;
32228;SDS011;18717;48.034;11.186;2023-07-31T13:05:24;13.65;;;12.95;;
32228;SDS011;18717;48.034;11.186;2023-07-31T13:07:51;13.90;;;13.30;;
32228;SDS011;18717;48.034;11.186;2023-07-31T13:10:19;13.90;;;12.98;;
32228;SDS011;18717;48.034;11.186;2023-07-31T13:12:47;14.32;;;13.27;;
32228;SDS011;18717;48.034;11.186;2023-07-31T13:15:17;14.52;;;13.82;;
32228;SDS011;18717;48.034;11.186;2023-07-31T13:17:45;14.25;;;13.50;;
32228;SDS011;18717;48.034;11.186;2023-07-31T13:20:13;15.07;;;13.98;;
32228;SDS011;18717;48.034;11.186;2023-07-31T13:22:41;14.15;;;13.07;;
32228;SDS011;18717;48.034;11.186;2023-07-31T13:25:12;14.43;;;13.30;;
32228;SDS011;18717;48.034;11.186;2023-07-31T13:27:39;14.57;;;13.48;;
32228;SDS011;18717;48.034;11.186;2023-07-31T13:30:07;14.00;;;13.05;;
32228;SDS011;18717;48.034;11.186;2023-07-31T13:32:37;14.65;;;13.82;;
32228;SDS011;18717;48.034;11.186;2023-07-31T13:35:05;14.95;;;14.05;;
32228;SDS011;18717;48.034;11.186;2023-07-31T13:37:34;14.23;;;13.38;;
32228;SDS011;18717;48.034;11.186;2023-07-31T13:40:02;15.15;;;13.88;;
32228;SDS011;18717;48.034;11.186;2023-07-31T13:42:31;13.80;;;13.00;;
32228;SDS011;18717;48.034;11.186;2023-07-31T13:44:59;14.88;;;13.90;;
32228;SDS011;18717;48.034;11.186;2023-07-31T13:47:32;14.07;;;13.27;;
32228;SDS011;18717;48.034;11.186;2023-07-31T13:50:02;14.25;;;13.35;;
32228;SDS011;18717;48.034;11.186;2023-07-31T13:52:30;14.40;;;13.55;;
32228;SDS011;18717;48.034;11.186;2023-07-31T16:25:20;14.23;;;13.20;;
32228;SDS011;18717;48.034;11.186;2023-07-31T16:27:48;14.05;;;13.07;;
32228;SDS011;18717;48.034;11.186;2023-07-31T16:30:16;14.25;;;13.18;;
32228;SDS011;18717;48.034;11.186;2023-07-31T16:32:44;15.10;;;14.13;;
32228;SDS011;18717;48.034;11.186;2023-07-31T16:35:13;15.00;;;14.15;;
32228;SDS011;18717;48.034;11.186;2023-07-31T16:37:41;14.57;;;13.57;;
32228;SDS011;18717;48.034;11.186;2023-07-31T16:40:10;14.65;;;13.68;;
32228;SDS011;18717;48.034;11.186;2023-07-31T16:42:39;14.57;;;13.48;;
32228;SDS011;18717;48.034;11.186;2023-07-31T16:45:07;15.55;;;14.63;;
32228;SDS011;18717;48.034;11.186;2023-07-31T16:47:38;16.60;;;15.15;;
32228;SDS011;18717;48.034;11.186;2023-07-31T16:50:06;15.13;;;13.90;;